Time;durP1;ratioP1;P1;durP2;ratioP2;P2;SDS_P1;SDS_P2;PMS_P1;PMS_P2;Temp;Humidity;BMP_temperature;BMP_pressure;BME280_temperature;BME280_humidity;BME280_pressure;Samples;Min_cycle;Max_cycle;Signal;HPM_P1;HPM_P2
2023/04/19 00:02:17;;;;;;;7.82;6.90;;;8.10;99.90;;;;;;5045474;28;20036;-78
2023/04/19 00:04:43;;;;;;;7.68;6.88;;;8.10;99.90;;;;;;5074165;28;20047;-78
2023/04/19 00:07:09;;;;;;;8.15;6.82;;;8.10;99.90;;;;;;5040690;28;20451;-78
2023/04/19 00:09:36;;;;;;;9.27;6.70;;;8.00;99.90;;;;;;5042097;28;20069;-79
2023/04/19 00:12:02;;;;;;;9.30;6.13;;;8.10;99.90;;;;;;5045706;28;20041;-78
2023/04/19 00:14:27;;;;;;;7.25;6.00;;;8.00;99.90;;;;;;5046072;28;20043;-78
2023/04/19 00:16:53;;;;;;;7.88;6.40;;;8.00;99.90;;;;;;5043671;28;20045;-78
2023/04/19 00:19:20;;;;;;;9.95;7.15;;;8.00;99.90;;;;;;5040268;28;20048;-78
2023/04/19 00:21:46;;;;;;;8.20;6.00;;;7.90;99.90;;;;;;5073442;28;20685;-78
2023/04/19 00:24:11;;;;;;;10.13;6.68;;;7.90;99.90;;;;;;5040928;28;20040;-78
2023/04/19 00:26:37;;;;;;;8.63;7.05;;;7.90;99.90;;;;;;5040679;28;20049;-78
2023/04/19 00:29:02;;;;;;;8.40;6.78;;;7.90;99.90;;;;;;5046178;28;20083;-78
2023/04/19 00:31:28;;;;;;;7.97;6.63;;;7.90;99.90;;;;;;5038764;28;20715;-77
2023/04/19 00:33:54;;;;;;;10.32;6.63;;;7.90;99.90;;;;;;5074888;28;20076;-78
2023/04/19 00:36:19;;;;;;;9.88;7.10;;;7.80;99.90;;;;;;5040373;28;20491;-78
2023/04/19 00:38:45;;;;;;;7.28;5.95;;;7.80;99.90;;;;;;5039291;28;20068;-78
2023/04/19 00:41:10;;;;;;;9.07;6.65;;;7.70;99.90;;;;;;5039038;28;20098;-78
2023/04/19 00:43:36;;;;;;;8.25;6.57;;;7.80;99.90;;;;;;5057842;28;20484;-78
2023/04/19 00:46:01;;;;;;;10.13;6.78;;;7.80;99.90;;;;;;5043252;28;20053;-78
2023/04/19 00:48:28;;;;;;;9.82;6.40;;;7.70;99.90;;;;;;5043237;28;20049;-78
2023/04/19 00:50:54;;;;;;;6.50;5.63;;;7.70;99.90;;;;;;5059342;28;20049;-78
2023/04/19 00:53:19;;;;;;;8.55;5.97;;;7.70;99.90;;;;;;5043236;28;20041;-78
2023/04/19 00:55:46;;;;;;;8.63;6.70;;;7.70;99.90;;;;;;5040126;28;20060;-78
2023/04/19 00:58:11;;;;;;;12.30;7.10;;;7.60;99.90;;;;;;5044799;28;20450;-78
2023/04/19 01:00:37;;;;;;;9.55;6.70;;;7.60;99.90;;;;;;5041153;28;20049;-78
2023/04/19 01:03:03;;;;;;;8.93;6.80;;;7.70;99.90;;;;;;5040583;28;20068;-78
2023/04/19 01:05:29;;;;;;;10.27;5.45;;;7.70;99.90;;;;;;5037426;28;20040;-78
2023/04/19 01:07:55;;;;;;;6.93;5.63;;;7.60;99.90;;;;;;5039672;28;20037;-78
2023/04/19 01:10:20;;;;;;;7.03;5.97;;;7.60;99.90;;;;;;5041769;28;20499;-78
2023/04/19 01:12:46;;;;;;;9.57;6.43;;;7.70;99.90;;;;;;5038645;28;20038;-78
2023/04/19 01:15:12;;;;;;;12.70;6.10;;;7.60;99.90;;;;;;5040224;28;20037;-77
2023/04/19 01:17:37;;;;;;;8.65;6.47;;;7.50;99.90;;;;;;5074587;28;20037;-78
2023/04/19 01:20:07;;;;;;;8.73;7.45;;;7.50;99.90;;;;;;5040317;28;20040;-77
2023/04/19 01:22:33;;;;;;;9.70;7.32;;;7.50;99.90;;;;;;5039246;28;20083;-77
2023/04/19 01:24:59;;;;;;;8.57;6.60;;;7.60;99.90;;;;;;5041581;28;20063;-77
2023/04/19 01:27:25;;;;;;;8.35;7.07;;;7.60;99.90;;;;;;5040178;28;20500;-77
2023/04/19 01:29:51;;;;;;;8.45;7.00;;;7.50;99.90;;;;;;5039800;28;20037;-77
2023/04/19 01:32:16;;;;;;;8.52;7.10;;;7.60;99.90;;;;;;5040145;28;20120;-77
2023/04/19 01:34:42;;;;;;;8.80;6.55;;;7.50;99.90;;;;;;5074589;28;20439;-78
2023/04/19 01:37:08;;;;;;;8.13;6.22;;;7.50;99.90;;;;;;5038659;28;20048;-78
2023/04/19 01:39:33;;;;;;;7.30;6.47;;;7.50;99.90;;;;;;5039162;28;20496;-77
2023/04/19 01:41:59;;;;;;;9.75;6.47;;;7.40;99.90;;;;;;5041142;28;20045;-77
2023/04/19 01:44:25;;;;;;;7.90;6.55;;;7.40;99.90;;;;;;5044101;28;20052;-77
2023/04/19 01:46:51;;;;;;;10.32;6.70;;;7.40;99.90;;;;;;5037926;28;20053;-77
2023/04/19 01:49:16;;;;;;;9.13;6.43;;;7.40;99.90;;;;;;5038280;28;20635;-78
2023/04/19 01:51:42;;;;;;;9.80;6.43;;;7.30;99.90;;;;;;5038819;28;20132;-77
2023/04/19 01:54:08;;;;;;;8.25;6.40;;;7.30;99.90;;;;;;5038611;28;20516;-77
2023/04/19 01:56:33;;;;;;;8.75;6.07;;;7.30;99.90;;;;;;5040975;28;20052;-77
2023/04/19 01:58:59;;;;;;;7.47;5.60;;;7.30;99.90;;;;;;5038216;28;20048;-77
2023/04/19 02:01:25;;;;;;;15.68;6.38;;;7.20;99.90;;;;;;5039117;28;20048;-78
2023/04/19 02:03:50;;;;;;;11.65;7.07;;;7.10;99.90;;;;;;5039269;28;20517;-78
2023/04/19 02:06:16;;;;;;;10.95;6.35;;;7.10;99.90;;;;;;5040336;28;20437;-77
2023/04/19 02:08:42;;;;;;;12.10;6.60;;;7.00;99.90;;;;;;5039586;28;20151;-77
2023/04/19 02:11:15;;;;;;;11.70;7.53;;;7.00;99.90;;;;;;5039161;28;20782;-77
2023/04/19 02:13:41;;;;;;;8.60;7.40;;;6.90;99.90;;;;;;5039019;28;20534;-77
2023/04/19 02:16:07;;;;;;;7.93;7.03;;;6.80;99.90;;;;;;5038484;28;20041;-77
2023/04/19 02:18:39;;;;;;;12.88;7.68;;;6.80;99.90;;;;;;5038017;28;20045;-77
2023/04/19 02:21:06;;;;;;;8.50;7.30;;;6.80;99.90;;;;;;5072608;28;20037;-77
2023/04/19 02:23:31;;;;;;;10.10;8.25;;;6.70;99.90;;;;;;5041198;28;20051;-77
2023/04/19 02:25:57;;;;;;;9.57;8.25;;;6.70;99.90;;;;;;5038333;28;20128;-77
2023/04/19 02:28:23;;;;;;;10.93;8.55;;;6.70;99.90;;;;;;5044605;28;20495;-77
2023/04/19 02:30:48;;;;;;;13.40;7.75;;;6.70;99.90;;;;;;5047627;28;20515;-77
2023/04/19 02:33:14;;;;;;;12.75;8.75;;;6.60;99.90;;;;;;5043912;28;20052;-77
2023/04/19 02:35:40;;;;;;;13.05;8.63;;;6.60;99.90;;;;;;5042010;28;20044;-77
2023/04/19 02:38:06;;;;;;;11.50;9.75;;;6.60;99.90;;;;;;5042233;28;20045;-78
2023/04/19 02:40:31;;;;;;;9.88;8.68;;;6.60;99.90;;;;;;5042534;28;20052;-78
2023/04/19 02:42:57;;;;;;;12.23;9.63;;;6.50;99.90;;;;;;5044302;28;20052;-77
2023/04/19 02:45:23;;;;;;;10.82;9.50;;;6.50;99.90;;;;;;5042413;28;20037;-77
2023/04/19 02:47:48;;;;;;;11.75;9.02;;;6.50;99.90;;;;;;5044013;28;20033;-78
2023/04/19 02:50:15;;;;;;;16.63;10.38;;;6.50;99.90;;;;;;5043098;28;20400;-77
2023/04/19 02:52:41;;;;;;;13.82;10.38;;;6.50;99.90;;;;;;5042227;28;20041;-78
2023/04/19 02:55:07;;;;;;;12.38;8.85;;;6.50;99.90;;;;;;5043537;28;20150;-77
2023/04/19 02:57:33;;;;;;;14.00;9.52;;;6.50;99.90;;;;;;5058769;28;20029;-78
2023/04/19 02:59:58;;;;;;;12.77;9.10;;;6.40;99.90;;;;;;5043918;28;20511;-78
2023/04/19 03:02:27;;;;;;;11.52;9.32;;;6.40;99.90;;;;;;5046612;28;20037;-77
2023/04/19 03:04:53;;;;;;;13.88;10.73;;;6.40;99.90;;;;;;5045744;28;21025;-77
2023/04/19 03:07:18;;;;;;;10.10;8.80;;;6.40;99.90;;;;;;5042611;28;20045;-77
2023/04/19 03:09:44;;;;;;;13.32;9.23;;;6.40;99.90;;;;;;5043138;28;20052;-78
2023/04/19 03:12:09;;;;;;;12.90;9.80;;;6.30;99.90;;;;;;5076111;28;20175;-77
2023/04/19 03:14:35;;;;;;;11.75;9.65;;;6.20;99.90;;;;;;5043634;28;20402;-77
2023/04/19 03:17:01;;;;;;;12.85;9.23;;;6.20;99.90;;;;;;5043165;28;20033;-77
2023/04/19 03:19:27;;;;;;;9.32;8.35;;;6.30;99.90;;;;;;5042218;28;20049;-77
2023/04/19 03:21:53;;;;;;;10.13;9.07;;;6.20;99.90;;;;;;5039658;28;20075;-78
2023/04/19 03:24:19;;;;;;;16.17;9.80;;;6.20;99.90;;;;;;5043277;28;20434;-77
2023/04/19 03:26:44;;;;;;;14.07;9.73;;;6.20;99.90;;;;;;5042455;28;20129;-77
2023/04/19 03:29:12;;;;;;;11.38;9.50;;;6.20;99.90;;;;;;5044872;28;20380;-77
2023/04/19 03:31:37;;;;;;;11.32;9.23;;;6.10;99.90;;;;;;5061083;28;20442;-77
2023/04/19 03:34:03;;;;;;;14.75;9.38;;;6.10;99.90;;;;;;5044472;28;20045;-78
2023/04/19 03:36:29;;;;;;;10.40;7.47;;;6.10;99.90;;;;;;5044689;28;20582;-78
2023/04/19 03:38:55;;;;;;;9.10;7.88;;;6.10;99.90;;;;;;5042298;28;20049;-77
2023/04/19 03:41:24;;;;;;;10.68;8.13;;;6.10;99.90;;;;;;5041821;28;20038;-78
2023/04/19 03:43:49;;;;;;;9.98;8.48;;;6.10;99.90;;;;;;5044228;28;20045;-77
2023/04/19 03:46:15;;;;;;;10.60;7.40;;;6.10;99.90;;;;;;5041668;28;20044;-77
2023/04/19 03:48:41;;;;;;;9.52;7.93;;;6.00;99.90;;;;;;5042857;28;20038;-77
2023/04/19 03:51:06;;;;;;;8.50;7.60;;;5.90;99.90;;;;;;5041196;28;20132;-77
2023/04/19 03:53:32;;;;;;;8.90;7.35;;;6.00;99.90;;;;;;5041187;28;20045;-77
2023/04/19 03:55:57;;;;;;;9.88;7.20;;;5.90;99.90;;;;;;5040167;28;20028;-77
2023/04/19 03:58:23;;;;;;;10.15;7.45;;;5.90;99.90;;;;;;5041007;28;20526;-78
2023/04/19 04:00:49;;;;;;;10.45;6.47;;;5.90;99.90;;;;;;5040606;28;20052;-77
2023/04/19 04:03:15;;;;;;;9.95;7.28;;;5.90;99.90;;;;;;5042348;28;20037;-77
2023/04/19 04:05:40;;;;;;;9.27;7.05;;;5.90;99.90;;;;;;5042557;28;20047;-77
2023/04/19 04:08:06;;;;;;;11.10;7.32;;;5.90;99.90;;;;;;5041755;28;20076;-77
2023/04/19 04:10:31;;;;;;;8.27;6.20;;;5.90;99.90;;;;;;5041903;28;20415;-77
2023/04/19 04:12:57;;;;;;;9.90;6.95;;;5.80;99.90;;;;;;5043659;28;20076;-78
2023/04/19 04:15:22;;;;;;;9.57;7.00;;;5.90;99.90;;;;;;5043600;28;20087;-77
2023/04/19 04:17:49;;;;;;;7.97;7.00;;;5.80;99.90;;;;;;5044559;28;20055;-78
2023/04/19 04:20:15;;;;;;;12.40;6.90;;;5.70;99.90;;;;;;5042200;28;20120;-77
2023/04/19 04:22:46;;;;;;;11.52;6.65;;;5.70;99.90;;;;;;5041269;28;20040;-78
2023/04/19 04:25:14;;;;;;;7.63;6.32;;;5.70;99.90;;;;;;5076552;28;20450;-77
2023/04/19 04:27:43;;;;;;;9.35;6.38;;;5.70;99.90;;;;;;5071531;28;20528;-78
2023/04/19 04:30:10;;;;;;;11.68;6.07;;;5.60;99.90;;;;;;5043732;28;20094;-79
2023/04/19 04:32:36;;;;;;;9.93;6.45;;;5.60;99.90;;;;;;5041399;28;20064;-78
2023/04/19 04:35:06;;;;;;;9.93;6.30;;;5.60;99.90;;;;;;5042930;28;20055;-79
2023/04/19 04:37:33;;;;;;;8.63;5.32;;;5.60;99.90;;;;;;5044974;28;20137;-78
2023/04/19 04:40:05;;;;;;;6.80;6.13;;;5.60;99.90;;;;;;5042694;28;20322;-79
2023/04/19 04:42:32;;;;;;;10.23;6.65;;;5.60;99.90;;;;;;5043703;28;20036;-79
2023/04/19 04:45:00;;;;;;;9.85;6.45;;;5.60;99.90;;;;;;5044767;28;20053;-78
2023/04/19 04:47:30;;;;;;;8.13;5.68;;;5.70;99.90;;;;;;5042441;28;20535;-79
2023/04/19 04:49:56;;;;;;;10.43;5.88;;;5.80;99.90;;;;;;5050333;28;20041;-79
2023/04/19 04:52:21;;;;;;;12.30;6.47;;;5.80;99.90;;;;;;5049898;28;20033;-79
2023/04/19 04:54:47;;;;;;;9.70;6.22;;;5.80;99.90;;;;;;5052040;28;20070;-80
2023/04/19 04:57:12;;;;;;;7.50;6.47;;;5.80;99.90;;;;;;5045849;28;20498;-78
2023/04/19 04:59:38;;;;;;;12.77;6.03;;;5.80;99.90;;;;;;5045821;28;20049;-79
2023/04/19 05:02:03;;;;;;;8.25;6.30;;;5.80;99.90;;;;;;5044185;28;20041;-79
2023/04/19 05:04:29;;;;;;;8.70;6.00;;;5.90;99.90;;;;;;5058975;28;20052;-78
2023/04/19 05:06:55;;;;;;;11.02;5.30;;;6.10;99.90;;;;;;5043170;28;20041;-79
2023/04/19 05:09:20;;;;;;;8.25;5.50;;;6.30;99.90;;;;;;5048376;28;20033;-80
2023/04/19 05:11:46;;;;;;;7.63;5.28;;;6.70;99.90;;;;;;5078050;28;20049;-79
2023/04/19 05:14:12;;;;;;;6.35;5.05;;;7.10;99.90;;;;;;5044660;28;20515;-80
2023/04/19 05:16:38;;;;;;;10.80;5.70;;;7.70;99.90;;;;;;5043108;28;20116;-79
2023/04/19 05:19:04;;;;;;;7.45;4.25;;;8.40;99.90;;;;;;5044199;28;20045;-79
2023/04/19 05:21:29;;;;;;;15.13;4.80;;;9.00;99.90;;;;;;5044069;28;20406;-78
2023/04/19 05:23:55;;;;;;;8.05;4.40;;;9.50;99.90;;;;;;5045942;28;20479;-78
2023/04/19 05:26:20;;;;;;;6.95;4.05;;;10.10;99.90;;;;;;5043755;28;20059;-78
2023/04/19 05:28:46;;;;;;;8.50;3.83;;;10.50;99.90;;;;;;5048150;28;20040;-77
2023/04/19 05:31:12;;;;;;;5.70;4.13;;;10.80;99.90;;;;;;5043027;28;20106;-78
2023/04/19 05:33:38;;;;;;;4.47;3.63;;;11.10;99.90;;;;;;5043304;28;20074;-79
2023/04/19 05:36:04;;;;;;;11.23;4.28;;;11.80;99.90;;;;;;5045235;28;20083;-79
2023/04/19 05:38:29;;;;;;;3.75;3.38;;;12.50;99.90;;;;;;5046347;28;20045;-78
2023/04/19 05:40:55;;;;;;;8.82;4.13;;;12.40;99.90;;;;;;5041951;28;20111;-78
2023/04/19 05:43:20;;;;;;;4.13;3.35;;;12.90;99.90;;;;;;5046573;28;20033;-78
2023/04/19 05:45:46;;;;;;;7.55;3.08;;;13.40;99.90;;;;;;5044030;28;20073;-79
2023/04/19 05:48:12;;;;;;;7.53;3.53;;;13.80;99.90;;;;;;5047037;28;20052;-78
2023/04/19 05:50:38;;;;;;;6.45;3.55;;;14.50;99.90;;;;;;5046943;28;20040;-79
2023/04/19 05:53:04;;;;;;;5.15;2.83;;;14.90;99.90;;;;;;5044928;28;20040;-79
2023/04/19 05:55:30;;;;;;;6.68;3.97;;;15.20;99.90;;;;;;5046247;28;20127;-80
2023/04/19 05:57:57;;;;;;;3.92;2.88;;;15.40;99.10;;;;;;5044045;28;20037;-80
2023/04/19 06:00:22;;;;;;;6.25;3.03;;;15.50;98.90;;;;;;5044833;28;20052;-78
2023/04/19 06:02:48;;;;;;;7.97;2.97;;;15.40;98.00;;;;;;5045446;28;20041;-79
2023/04/19 06:05:14;;;;;;;5.22;2.80;;;15.60;97.60;;;;;;5050667;28;20080;-79
2023/04/19 06:07:39;;;;;;;4.18;2.53;;;15.70;96.40;;;;;;5049945;28;20048;-78
2023/04/19 06:10:06;;;;;;;3.38;2.95;;;15.50;96.00;;;;;;5047449;28;20049;-78
2023/04/19 06:12:31;;;;;;;4.47;2.40;;;15.50;96.40;;;;;;5046374;28;20164;-79
2023/04/19 06:14:57;;;;;;;5.32;2.80;;;15.00;95.90;;;;;;5043535;28;20131;-78
2023/04/19 06:17:25;;;;;;;5.82;2.58;;;14.70;96.40;;;;;;5043097;28;20167;-78
2023/04/19 06:19:51;;;;;;;3.05;2.13;;;15.20;96.60;;;;;;5044962;28;20532;-79
2023/04/19 06:22:17;;;;;;;3.05;2.28;;;16.20;96.00;;;;;;5045195;28;20041;-79
2023/04/19 06:24:44;;;;;;;2.63;1.85;;;16.60;94.80;;;;;;5042079;28;20037;-78
2023/04/19 06:27:10;;;;;;;3.70;2.35;;;16.60;94.20;;;;;;5076077;28;20472;-78
2023/04/19 06:29:36;;;;;;;3.78;2.17;;;16.70;93.70;;;;;;5044232;28;20056;-79
2023/04/19 06:32:02;;;;;;;5.93;2.35;;;17.00;93.30;;;;;;5045641;28;20044;-79
2023/04/19 06:34:27;;;;;;;3.75;2.10;;;17.30;93.10;;;;;;5045323;28;20036;-79
2023/04/19 06:36:53;;;;;;;3.28;2.10;;;17.40;91.70;;;;;;5047388;28;20067;-78
2023/04/19 06:39:18;;;;;;;2.90;2.15;;;17.00;91.40;;;;;;5047081;28;20494;-79
2023/04/19 06:41:44;;;;;;;3.45;2.35;;;16.50;91.30;;;;;;5045269;28;20040;-78
2023/04/19 06:44:10;;;;;;;3.80;2.30;;;16.30;91.80;;;;;;5061231;28;20045;-80
2023/04/19 06:46:36;;;;;;;3.55;2.53;;;15.80;91.10;;;;;;5048419;28;20043;-79
2023/04/19 06:49:01;;;;;;;4.28;2.22;;;15.40;92.80;;;;;;5047115;28;20040;-79
2023/04/19 06:51:27;;;;;;;3.63;2.10;;;14.60;92.80;;;;;;5047988;28;20071;-79
2023/04/19 06:53:53;;;;;;;9.35;3.25;;;13.80;93.40;;;;;;5050157;28;20050;-78
2023/04/19 06:56:45;;;;;;;5.85;2.20;;;13.50;94.30;;;;;;5051064;28;20049;-78
2023/04/19 06:59:16;;;;;;;4.03;2.00;;;13.60;94.20;;;;;;5047972;28;20193;-78
2023/04/19 07:01:43;;;;;;;6.30;1.83;;;13.50;94.50;;;;;;5045272;28;20056;-79
2023/04/19 07:04:09;;;;;;;2.08;1.38;;;13.00;94.00;;;;;;5051978;28;20122;-78
2023/04/19 07:06:35;;;;;;;5.25;1.85;;;12.80;94.50;;;;;;5049716;28;20044;-78
2023/04/19 07:09:02;;;;;;;1.77;1.48;;;12.40;94.50;;;;;;5046764;28;20035;-78
2023/04/19 07:11:27;;;;;;;3.25;1.67;;;12.40;95.40;;;;;;5045792;28;20044;-77
2023/04/19 07:13:53;;;;;;;5.22;2.50;;;12.30;95.40;;;;;;5047770;28;20595;-78
2023/04/19 07:16:19;;;;;;;5.50;2.25;;;11.90;94.50;;;;;;5047038;28;20051;-78
2023/04/19 07:18:45;;;;;;;4.38;1.50;;;11.70;95.80;;;;;;5046907;28;20055;-79
2023/04/19 07:21:10;;;;;;;2.15;1.30;;;11.60;95.90;;;;;;5044096;28;20041;-78
2023/04/19 07:23:36;;;;;;;1.85;1.30;;;11.50;95.80;;;;;;5048179;28;20124;-78
2023/04/19 07:26:02;;;;;;;2.42;0.88;;;11.60;97.00;;;;;;5042534;28;20091;-78
2023/04/19 07:28:28;;;;;;;1.58;1.10;;;11.60;95.30;;;;;;5043479;28;20044;-78
2023/04/19 07:30:54;;;;;;;2.35;0.98;;;11.30;96.50;;;;;;5044153;28;20053;-78
2023/04/19 07:33:22;;;;;;;2.50;1.13;;;11.30;95.10;;;;;;5043839;28;20483;-78
2023/04/19 07:35:47;;;;;;;3.63;1.40;;;11.10;95.90;;;;;;5047823;28;20487;-78
2023/04/19 07:38:13;;;;;;;9.07;1.45;;;11.00;96.20;;;;;;5047168;28;20037;-78
2023/04/19 07:40:38;;;;;;;2.60;1.20;;;11.10;97.00;;;;;;5045307;28;22025;-78
2023/04/19 07:43:04;;;;;;;1.95;1.30;;;11.40;96.30;;;;;;5045570;28;20072;-79
2023/04/19 07:45:29;;;;;;;4.38;1.30;;;11.40;95.50;;;;;;5043344;28;20048;-78
2023/04/19 07:47:55;;;;;;;2.45;1.42;;;11.60;98.00;;;;;;5042380;28;20037;-78
2023/04/19 07:50:21;;;;;;;1.55;1.00;;;11.80;96.50;;;;;;5042677;28;20036;-78
2023/04/19 07:52:46;;;;;;;2.80;1.35;;;11.70;95.50;;;;;;5047703;28;20056;-78
2023/04/19 07:55:12;;;;;;;3.00;1.20;;;11.40;96.10;;;;;;5047269;28;20041;-78
2023/04/19 07:57:37;;;;;;;1.65;1.05;;;11.40;95.20;;;;;;5047416;28;20467;-78
2023/04/19 08:00:03;;;;;;;2.28;1.25;;;11.40;96.60;;;;;;5047185;28;20037;-78
2023/04/19 08:02:29;;;;;;;3.10;1.20;;;11.30;94.60;;;;;;5041285;28;20053;-79
2023/04/19 08:04:56;;;;;;;4.18;1.30;;;11.30;95.70;;;;;;5043963;28;20041;-79
2023/04/19 08:07:22;;;;;;;3.45;1.30;;;11.50;96.60;;;;;;5048102;28;20446;-79
2023/04/19 08:09:48;;;;;;;2.83;1.05;;;11.60;95.70;;;;;;5043642;28;20114;-79
2023/04/19 08:12:14;;;;;;;1.90;1.15;;;11.80;96.10;;;;;;5074133;28;20096;-79
2023/04/19 08:14:41;;;;;;;4.43;1.42;;;11.70;95.20;;;;;;5060675;28;20045;-79
2023/04/19 08:17:06;;;;;;;3.17;1.05;;;11.70;94.70;;;;;;5044334;28;20128;-80
2023/04/19 08:19:32;;;;;;;4.38;1.30;;;11.80;95.10;;;;;;5040066;28;20136;-79
2023/04/19 08:21:58;;;;;;;4.50;1.90;;;11.80;93.60;;;;;;5041128;28;20415;-80
2023/04/19 08:24:24;;;;;;;3.17;1.60;;;11.90;94.60;;;;;;5043096;28;20037;-79
2023/04/19 08:26:52;;;;;;;3.78;1.35;;;11.60;94.30;;;;;;5047067;28;20683;-79
2023/04/19 08:29:21;;;;;;;2.42;1.40;;;11.80;97.20;;;;;;5037561;28;20049;-79
2023/04/19 08:31:47;;;;;;;1.75;1.58;;;11.80;95.10;;;;;;5064145;28;20072;-79
2023/04/19 08:34:13;;;;;;;3.63;1.20;;;11.90;95.10;;;;;;5043601;28;20073;-79
2023/04/19 08:36:38;;;;;;;2.28;1.23;;;11.70;93.40;;;;;;5047252;28;20732;-79
2023/04/19 08:39:04;;;;;;;2.13;1.08;;;11.80;96.30;;;;;;5047607;28;20064;-79
2023/04/19 08:41:30;;;;;;;2.05;1.25;;;11.90;94.00;;;;;;5045946;28;20037;-80
2023/04/19 08:43:57;;;;;;;4.10;1.65;;;12.00;93.60;;;;;;5048307;28;20400;-79
2023/04/19 08:46:23;;;;;;;5.63;1.45;;;12.20;94.30;;;;;;5076107;28;20160;-79
2023/04/19 08:48:50;;;;;;;4.50;1.70;;;12.30;95.60;;;;;;5042110;28;20041;-79
2023/04/19 08:51:17;;;;;;;1.90;1.25;;;12.20;93.90;;;;;;5076680;28;20407;-79
2023/04/19 08:53:43;;;;;;;5.60;1.77;;;12.60;95.60;;;;;;5044322;28;20041;-78
2023/04/19 08:56:09;;;;;;;3.63;1.30;;;12.40;93.10;;;;;;5044255;28;20041;-79
2023/04/19 08:58:35;;;;;;;3.90;1.75;;;12.50;94.40;;;;;;5033155;28;20148;-79
2023/04/19 09:01:04;;;;;;;2.10;1.08;;;12.50;94.40;;;;;;5047982;28;20108;-78
2023/04/19 09:03:30;;;;;;;2.08;1.05;;;12.70;95.10;;;;;;5044344;28;20036;-79
2023/04/19 09:06:00;;;;;;;3.45;1.15;;;12.90;94.50;;;;;;5042704;28;20057;-79
2023/04/19 09:08:27;;;;;;;4.43;1.10;;;12.60;93.00;;;;;;5043651;28;20045;-79
2023/04/19 09:11:00;;;;;;;4.03;1.13;;;12.60;94.30;;;;;;5028206;28;20072;-79
2023/04/19 09:13:27;;;;;;;6.60;1.20;;;12.70;94.50;;;;;;5070599;28;20068;-79
2023/04/19 09:15:55;;;;;;;2.03;1.05;;;12.60;93.20;;;;;;5059420;28;20041;-79
2023/04/19 09:18:25;;;;;;;1.45;1.08;;;12.60;93.60;;;;;;5041966;28;20045;-79
2023/04/19 09:20:57;;;;;;;1.85;1.27;;;12.70;94.30;;;;;;5059361;28;20044;-79
2023/04/19 09:23:25;;;;;;;2.28;0.90;;;12.80;93.80;;;;;;5043424;28;20048;-79
2023/04/19 09:25:56;;;;;;;2.70;1.08;;;12.80;93.40;;;;;;5042215;28;20060;-79
2023/04/19 09:28:23;;;;;;;2.78;0.88;;;12.90;93.40;;;;;;5027397;28;20115;-78
2023/04/19 09:30:49;;;;;;;3.42;1.25;;;13.00;92.40;;;;;;5044236;28;20041;-79
2023/04/19 09:33:35;;;;;;;2.58;1.20;;;12.90;92.80;;;;;;5042442;28;20060;-79
2023/04/19 09:36:01;;;;;;;2.63;1.23;;;12.90;92.90;;;;;;5025560;28;20069;-79
2023/04/19 09:38:27;;;;;;;5.60;1.30;;;12.80;92.00;;;;;;5040502;28;20052;-78
2023/04/19 09:41:06;;;;;;;2.50;0.98;;;13.00;92.50;;;;;;5041959;28;20040;-78
2023/04/19 09:43:32;;;;;;;4.13;1.27;;;12.90;91.60;;;;;;5077845;28;20319;-78
2023/04/19 09:45:58;;;;;;;3.67;1.23;;;12.90;91.30;;;;;;5041571;28;20040;-78
2023/04/19 09:48:23;;;;;;;4.45;1.00;;;12.90;92.00;;;;;;5037888;28;20049;-78
2023/04/19 09:50:59;;;;;;;3.90;1.05;;;12.90;92.40;;;;;;5040565;28;20041;-78
2023/04/19 09:53:27;;;;;;;4.40;1.17;;;12.90;92.30;;;;;;5040009;28;20550;-78
2023/04/19 09:55:53;;;;;;;2.20;0.90;;;13.00;93.80;;;;;;5043775;28;20056;-79
2023/04/19 09:58:19;;;;;;;1.65;0.73;;;13.10;93.40;;;;;;5043335;28;20072;-78
2023/04/19 10:00:47;;;;;;;3.58;0.82;;;13.00;92.40;;;;;;5044571;28;20135;-79
2023/04/19 10:03:15;;;;;;;2.28;0.88;;;13.10;93.10;;;;;;5045759;28;20047;-79
2023/04/19 10:05:42;;;;;;;1.05;0.95;;;13.00;92.80;;;;;;5042317;28;20067;-79
2023/04/19 10:08:08;;;;;;;3.20;0.70;;;13.30;93.30;;;;;;5041124;28;20063;-79
2023/04/19 10:10:35;;;;;;;2.03;1.00;;;13.60;94.90;;;;;;5041158;28;20594;-79
2023/04/19 10:13:06;;;;;;;1.50;0.95;;;13.70;93.30;;;;;;5042765;28;20053;-79
2023/04/19 10:15:35;;;;;;;4.25;1.00;;;13.80;92.70;;;;;;5041152;28;20084;-80
2023/04/19 10:18:02;;;;;;;2.53;1.10;;;13.60;91.70;;;;;;5043064;28;20548;-79
2023/04/19 10:20:48;;;;;;;2.78;1.60;;;13.40;91.40;;;;;;5041879;28;20052;-80
2023/04/19 10:23:14;;;;;;;2.90;0.80;;;13.40;92.70;;;;;;5040827;28;20034;-80
2023/04/19 10:25:45;;;;;;;6.07;1.00;;;13.60;92.30;;;;;;5038947;28;20056;-79
2023/04/19 10:28:11;;;;;;;4.55;0.80;;;13.50;91.80;;;;;;5056588;28;20495;-79
2023/04/19 10:30:56;;;;;;;1.77;0.80;;;13.60;91.50;;;;;;5041724;28;20075;-80
2023/04/19 10:33:26;;;;;;;3.17;1.00;;;13.60;91.50;;;;;;5040775;28;20045;-79
2023/04/19 10:35:59;;;;;;;1.70;0.98;;;13.50;90.60;;;;;;5037534;28;20050;-78
2023/04/19 10:38:41;;;;;;;1.48;0.60;;;13.60;90.10;;;;;;5038468;28;20167;-78
2023/04/19 10:41:10;;;;;;;3.85;0.88;;;13.70;89.50;;;;;;5036440;28;20037;-78
2023/04/19 10:43:42;;;;;;;2.20;0.95;;;13.60;90.70;;;;;;5040307;28;20840;-78
2023/04/19 10:46:20;;;;;;;5.00;0.90;;;13.90;89.80;;;;;;5038906;28;20045;-78
2023/04/19 10:48:56;;;;;;;2.35;0.60;;;14.00;92.50;;;;;;5039026;28;20101;-79
2023/04/19 10:51:31;;;;;;;;;;;13.80;90.00;;;;;;5043683;28;20124;-79
2023/04/19 10:54:03;;;;;;;1.10;0.50;;;14.10;91.60;;;;;;5043184;28;19924;-79
2023/04/19 10:56:32;;;;;;;2.03;0.50;;;14.00;90.30;;;;;;5042396;28;20076;-79
2023/04/19 10:59:00;;;;;;;2.00;0.73;;;13.80;90.60;;;;;;5061992;28;20072;-79
2023/04/19 11:01:41;;;;;;;1.75;0.47;;;13.70;89.90;;;;;;5044906;28;20045;-78
2023/04/19 11:04:12;;;;;;;3.05;1.05;;;13.60;89.10;;;;;;5040818;28;20040;-79
2023/04/19 11:06:55;;;;;;;1.35;0.63;;;13.80;92.90;;;;;;5061921;28;20041;-79
2023/04/19 11:09:24;;;;;;;0.75;0.50;;;13.60;90.30;;;;;;5043058;28;20040;-79
2023/04/19 11:11:56;;;;;;;5.43;1.13;;;13.80;91.20;;;;;;5045671;28;20076;-79
2023/04/19 11:14:22;;;;;;;1.17;0.60;;;13.90;91.10;;;;;;5045112;28;20055;-79
2023/04/19 11:16:48;;;;;;;3.38;0.75;;;13.90;90.60;;;;;;5045674;28;20043;-79
2023/04/19 11:19:18;;;;;;;2.78;0.50;;;14.20;93.40;;;;;;5045269;28;20056;-78
2023/04/19 11:21:48;;;;;;;3.53;0.60;;;14.30;91.20;;;;;;5050038;28;20041;-79
2023/04/19 11:24:17;;;;;;;0.85;0.50;;;14.20;90.90;;;;;;5062700;28;20523;-79
2023/04/19 11:26:46;;;;;;;1.38;0.60;;;14.20;91.20;;;;;;5047848;28;20108;-79
2023/04/19 11:29:12;;;;;;;4.38;0.80;;;14.20;90.10;;;;;;5048480;28;20035;-79
2023/04/19 11:31:37;;;;;;;3.08;0.90;;;14.00;90.50;;;;;;5046030;28;20062;-79
2023/04/19 11:34:03;;;;;;;1.52;0.47;;;14.10;91.30;;;;;;5041774;28;20121;-78
2023/04/19 11:36:31;;;;;;;5.78;0.77;;;14.10;90.00;;;;;;5045264;28;20067;-78
2023/04/19 11:38:56;;;;;;;3.55;0.65;;;14.00;90.00;;;;;;5079594;28;20128;-79
2023/04/19 11:41:22;;;;;;;3.15;0.68;;;13.90;91.90;;;;;;5047176;28;20113;-79
2023/04/19 11:43:48;;;;;;;3.47;0.82;;;14.10;92.20;;;;;;5027818;28;20065;-78
2023/04/19 11:46:13;;;;;;;0.73;0.50;;;14.30;93.20;;;;;;5045446;28;20041;-78
2023/04/19 11:48:51;;;;;;;4.15;0.70;;;14.20;92.00;;;;;;5047038;28;20037;-79
2023/04/19 11:51:16;;;;;;;2.80;0.70;;;14.10;91.60;;;;;;5031900;28;20040;-79
2023/04/19 11:53:42;;;;;;;1.25;0.60;;;14.20;93.10;;;;;;5043155;28;20090;-78
2023/04/19 11:56:08;;;;;;;7.70;1.00;;;14.20;91.30;;;;;;5048316;28;20124;-78
2023/04/19 11:58:43;;;;;;;1.25;0.60;;;14.20;91.80;;;;;;5045105;28;20037;-79
2023/04/19 12:01:14;;;;;;;3.20;1.50;;;14.20;92.10;;;;;;5046532;28;20559;-78
2023/04/19 12:03:44;;;;;;;2.20;0.93;;;14.10;91.50;;;;;;5045943;28;20051;-79
2023/04/19 12:06:15;;;;;;;1.60;0.82;;;14.00;91.70;;;;;;5029654;28;20159;-79
2023/04/19 12:08:49;;;;;;;3.78;1.25;;;14.00;92.40;;;;;;5060812;28;20064;-79
2023/04/19 12:11:17;;;;;;;4.60;1.25;;;14.00;92.30;;;;;;5047641;28;20169;-78
2023/04/19 12:13:43;;;;;;;1.98;1.08;;;13.90;91.90;;;;;;5044822;28;20049;-79
2023/04/19 12:16:10;;;;;;;5.60;2.08;;;13.90;91.90;;;;;;5044347;28;20573;-79
2023/04/19 12:18:51;;;;;;;3.40;0.82;;;14.00;94.80;;;;;;5045224;28;20499;-79
2023/04/19 12:21:26;;;;;;;1.15;1.05;;;14.20;92.40;;;;;;5046029;28;20435;-78
2023/04/19 12:24:00;;;;;;;1.95;1.30;;;14.20;92.90;;;;;;5070838;28;20041;-79
2023/04/19 12:26:27;;;;;;;4.05;1.00;;;14.30;93.40;;;;;;5040512;28;20115;-80
2023/04/19 12:28:53;;;;;;;2.45;1.70;;;14.10;92.50;;;;;;5039762;28;20040;-78
2023/04/19 12:31:19;;;;;;;2.30;1.17;;;14.10;93.80;;;;;;5050244;28;20044;-79
2023/04/19 12:33:45;;;;;;;4.40;1.70;;;14.20;92.90;;;;;;5044894;28;20151;-79
2023/04/19 12:36:11;;;;;;;3.78;1.50;;;14.10;92.20;;;;;;5039175;28;20055;-79
2023/04/19 12:38:37;;;;;;;4.60;1.55;;;14.10;93.50;;;;;;5046348;28;20033;-80
2023/04/19 12:41:02;;;;;;;7.35;1.50;;;14.20;93.40;;;;;;5049589;28;20040;-80
2023/04/19 12:43:31;;;;;;;3.22;1.67;;;14.30;94.80;;;;;;5047643;28;20101;-79
2023/04/19 12:45:57;;;;;;;3.47;1.35;;;14.20;92.90;;;;;;5036694;28;20135;-79
2023/04/19 12:48:24;;;;;;;2.72;1.20;;;14.20;92.60;;;;;;5048086;28;20064;-80
2023/04/19 12:50:49;;;;;;;3.47;2.13;;;14.00;91.50;;;;;;5048517;28;20112;-80